Terminal Aerodrome Forecast
Issued by NWS

Home | Current Version | Previous Version | Text Only | Print | Product List | Glossary On
Versions: 1 2 3 4 5 6 7 8 9 10 11 12 13 14
290
FTUS43 KEAX 261722
TAFMKC
TAF
KMKC 261722Z 2618/2718 33013KT P6SM VCSH OVC025
      TEMPO 2620/2623 SCT025 BKN035
     FM270000 33009KT P6SM BKN035
     FM270700 31007KT P6SM SCT060
     FM271300 27006KT P6SM FEW200=

USA.gov is the U.S. government's official web portal to all federal, state and local government web resources and services.